Weather observations for the past three days for
Dallas / Addison Airport
| Date | Time (cdt) | Wind (kph) | Vis. (km) | Weather | Sky Cond. | Temperature (ºC) | Relative Humidity | Wind Chill (°C) | Heat Index (°C) | Pressure | Precipitation (cm) | ||||||
|---|---|---|---|---|---|---|---|---|---|---|---|---|---|---|---|---|---|
| Air | Dwpt | 6 hour | altimeter (cm) | sea level (mb) | 1 hr | 3 hr | 6 hr | ||||||||||
| Max. | Min. | ||||||||||||||||
| 31 | 01:55 | S 7 | 16.09 | Fair | CLR | 32 | 17 | 41% | 32 | 76.1 | 0.0 | ||||||
| 31 | 01:35 | S 7 | 16.09 | Fair | CLR | 32 | 17 | 41% | 32 | 76.1 | 0.0 | ||||||
| 31 | 01:15 | S 9 | 16.09 | Fair | CLR | 33 | 17 | 38% | 33 | 76.1 | 0.0 | ||||||
| 31 | 00:55 | S 11 | 16.09 | Fair | CLR | 33 | 17 | 37.5 | 32.8 | 38% | 33 | 76.1 | 0.0 | ||||
| 31 | 00:35 | S 9 | 16.09 | Fair | CLR | 33 | 18 | 41% | 34 | 76.1 | 0.0 | ||||||
| 31 | 00:15 | Vrbl 11 | 16.09 | Fair | CLR | 33 | 17 | 38% | 33 | 76.1 | 0.0 | ||||||
| 30 | 23:55 | S 9 | 16.09 | Fair | CLR | 33 | 17 | 38% | 33 | 76.07 | 0.0 | ||||||
| 30 | 23:35 | S 11 | 16.09 | Fair | CLR | 33 | 17 | 38% | 33 | 76.07 | 0.0 | ||||||
| 30 | 23:16 | S 11 | 16.09 | Fair | CLR | 34 | 17 | 36% | 35 | 76.07 | 0.0 | ||||||
| 30 | 22:55 | Vrbl 7 | 16.09 | Fair | CLR | 34 | 17 | 36% | 35 | 76.07 | 0.0 | ||||||
| 30 | 22:35 | S 13 | 16.09 | Fair | CLR | 34 | 17 | 36% | 35 | 76.05 | 0.0 | ||||||
| 30 | 22:15 | S 13 | 16.09 | Fair | CLR | 34 | 17 | 36% | 35 | 76.07 | 0.0 | ||||||
| 30 | 21:55 | S 13 | 16.09 | Fair | CLR | 34 | 17 | 36% | 35 | 76.05 | 0.0 | ||||||
| 30 | 21:47 | SE 13 | 16.09 | Clear | SKC | 34 | 15 | 32% | 34 | 76.07 | 0.0 | ||||||
| 30 | 21:35 | SE 15 | 16.09 | Fair | CLR | 34 | 16 | 34% | 34 | 76.02 | 0.0 | ||||||
| 30 | 20:47 | SE 15 | 16.09 | Clear | SKC | 35 | 15 | 30% | 35 | 76 | 0.0 | ||||||
| 30 | 19:57 | SE 13 | 16.09 | Partly Cloudy | SCT090 | 35 | 15 | 30% | 35 | 75.97 | 0.0 | ||||||
| 30 | 18:47 | S 17 G 28 | 16.09 | Partly Cloudy | SCT090 | 37 | 13 | 24% | 36 | 76 | 0.0 | ||||||
| 30 | 17:47 | S 13 G 22 | 16.09 | Partly Cloudy | SCT090 | 37 | 13 | 24% | 36 | 76 | 0.0 | ||||||
| 30 | 16:47 | SE 11 | 20.92 | Partly Cloudy | SCT085 | 37 | 13 | 24% | 36 | 76.02 | 0.0 | ||||||
| 30 | 15:47 | S 19 | 16.09 | Partly Cloudy | SCT085 | 38 | 14 | 24% | 38 | 76.07 | 0.0 | ||||||
| 30 | 14:47 | S 19 G 33 | 16.09 | Partly Cloudy | SCT075 | 37 | 14 | 25% | 36 | 76.12 | 0.0 | ||||||
| 30 | 13:47 | S 15 G 28 | 16.09 | A Few Clouds | FEW075 | 36 | 15 | 28% | 36 | 76.17 | 0.0 | ||||||
| 30 | 12:47 | S 15 | 16.09 | Clear | SKC | 36 | 19 | 37% | 38 | 76.23 | 0.0 | ||||||
| 30 | 11:47 | S 13 G 28 | 16.09 | Clear | SKC | 34 | 17 | 36% | 35 | 76.3 | 0.0 | ||||||
| 30 | 10:56 | S 17 G 28 | 16.09 | Clear | SKC | 33 | 18 | 41% | 34 | 76.3 | 0.0 | ||||||
| 30 | 09:47 | SW 11 | 16.09 | Clear | SKC | 31 | 19 | 49% | 32 | 76.3 | 0.0 | ||||||
| 30 | 08:47 | S 9 | 16.09 | Clear | SKC | 29 | 19 | 55% | 30 | 76.3 | 0.0 | ||||||
| 30 | 07:47 | S 7 | 16.09 | Clear | SKC | 28 | 21 | 66% | 30 | 76.28 | 0.0 | ||||||
| 30 | 06:47 | S 9 | 16.09 | Clear | SKC | 28 | 20 | 62% | 30 | 76.23 | 0.0 | ||||||
| 30 | 06:00 | S 7 | 16.09 | Clear | SKC | 28 | 19 | 58% | 29 | 76.17 | 0.0 | ||||||
| 30 | 05:35 | SE 9 | 16.09 | Fair | CLR | 28 | 19 | 58% | 29 | 76.15 | 0.0 | ||||||
| 30 | 05:15 | SE 9 | 16.09 | Fair | CLR | 29 | 19 | 55% | 30 | 76.12 | 0.0 | ||||||
| 30 | 04:55 | S 9 | 16.09 | Fair | CLR | 29 | 18 | 51% | 30 | 76.12 | 0.0 | ||||||
| 30 | 04:35 | SE 7 | 16.09 | Fair | CLR | 29 | 18 | 51% | 30 | 76.15 | 0.0 | ||||||
| 30 | 04:16 | SE 11 | 16.09 | Fair | CLR | 29 | 18 | 51% | 30 | 76.15 | 0.0 | ||||||
| 30 | 03:55 | S 11 | 16.09 | Fair | CLR | 30 | 18 | 49% | 31 | 76.15 | 0.0 | ||||||
| 30 | 03:35 | S 11 | 16.09 | Fair | CLR | 30 | 18 | 49% | 31 | 76.15 | 0.0 | ||||||
| 30 | 03:15 | S 7 | 16.09 | Fair | CLR | 30 | 18 | 49% | 31 | 76.15 | 0.0 | ||||||
| 30 | 02:55 | SE 7 | 16.09 | Fair | CLR | 31 | 18 | 46% | 32 | 76.12 | 0.0 | ||||||
| 30 | 02:35 | SE 9 | 16.09 | Fair | CLR | 31 | 17 | 43% | 31 | 76.15 | 0.0 | ||||||
| 30 | 02:15 | SE 11 | 16.09 | Fair | CLR | 31 | 17 | 43% | 31 | 76.15 | 0.0 | ||||||
| 30 | 01:55 | SE 11 | 16.09 | Fair | CLR | 32 | 17 | 41% | 32 | 76.15 | 0.0 | ||||||
| 30 | 01:35 | SE 13 | 16.09 | Fair | CLR | 31 | 17 | 43% | 31 | 76.15 | 0.0 | ||||||
| 30 | 01:15 | SE 11 | 16.09 | Fair | CLR | 32 | 16 | 38% | 32 | 76.15 | 0.0 | ||||||
| 30 | 00:55 | S 7 | 16.09 | Fair | CLR | 33 | 16 | 38.2 | 32.7 | 36% | 33 | 76.12 | 0.0 | ||||
| 30 | 00:35 | S 9 | 16.09 | Fair | CLR | 33 | 16 | 36% | 33 | 76.12 | 0.0 | ||||||
| 30 | 00:15 | Vrbl 9 | 16.09 | Fair | CLR | 33 | 16 | 36% | 33 | 76.12 | 0.0 | ||||||
| 29 | 23:55 | S 11 | 16.09 | Fair | CLR | 33 | 16 | 36% | 33 | 76.12 | 0.0 | ||||||
| 29 | 23:35 | S 11 | 16.09 | Fair | CLR | 34 | 15 | 32% | 34 | 76.15 | 0.0 | ||||||
| 29 | 23:15 | Vrbl 11 | 16.09 | Fair | CLR | 34 | 15 | 32% | 34 | 76.12 | 0.0 | ||||||
| 29 | 22:55 | S 15 | 16.09 | Fair | CLR | 34 | 16 | 34% | 34 | 76.12 | 0.0 | ||||||
| 29 | 22:35 | S 15 | 16.09 | Fair | CLR | 34 | 16 | 34% | 34 | 76.12 | 0.0 | ||||||
| 29 | 22:15 | S 13 | 16.09 | Fair | CLR | 34 | 16 | 34% | 34 | 76.1 | 0.0 | ||||||
| 29 | 21:55 | SE 15 | 16.09 | Fair | CLR | 34 | 15 | 32% | 34 | 76.1 | 0.0 | ||||||
| 29 | 21:35 | S 13 | 16.09 | Fair | CLR | 35 | 15 | 30% | 35 | 76.07 | 0.0 | ||||||
| 29 | 20:47 | SE 17 | 16.09 | Clear | SKC | 35 | 13 | 26% | 34 | 76.07 | 0.0 | ||||||
| 29 | 19:47 | S 9 | 16.09 | Clear | SKC | 36 | 14 | 27% | 35 | 76.05 | 0.0 | ||||||
| 29 | 18:49 | E 13 | 16.09 | A Few Clouds | FEW095 | 38 | 13 | 22% | 37 | 76.05 | 0.0 | ||||||
| 29 | 17:49 | S 17 G 33 | 16.09 | Partly Cloudy | SCT095 | 38 | 13 | 22% | 37 | 76.05 | 0.0 | ||||||
| 29 | 17:47 | SE 13 | 16.09 | Clear | SKC | 38 | 12 | 21% | 37 | 76.1 | 0.0 | ||||||
| 29 | 16:47 | SE 13 | 16.09 | Clear | SKC | 38 | 12 | 21% | 37 | 76.1 | 0.0 | ||||||
| 29 | 15:47 | SE 19 G 35 | 16.09 | A Few Clouds | FEW085 | 38 | 14 | 24% | 38 | 76.15 | 0.0 | ||||||
| 29 | 14:47 | E 7 G 24 | 16.09 | A Few Clouds | FEW075 | 37 | 14 | 25% | 36 | 76.2 | 0.0 | ||||||
| 29 | 13:52 | S 13 | 16.09 | Clear | SKC | 37 | 16 | 29% | 37 | 76.28 | 0.0 | ||||||
| 29 | 12:49 | SE 15 | 16.09 | Clear | SKC | 35 | 17 | 34% | 36 | 76.33 | 0.0 | ||||||
| 29 | 11:55 | SE 17 | 16.09 | Clear | SKC | 34 | 17 | 36% | 35 | 76.38 | 0.0 | ||||||
| 29 | 10:50 | S 9 | 16.09 | Clear | SKC | 33 | 20 | 46% | 35 | 76.38 | 0.0 | ||||||
| 29 | 09:53 | Calm | 16.09 | Clear | SKC | 30 | 18 | 49% | 31 | 76.4 | 0.0 | ||||||
| 29 | 08:47 | SE 6 | 16.09 | Clear | SKC | 29 | 21 | 62% | 31 | 76.38 | 0.0 | ||||||
| 29 | 07:55 | SE 7 | 16.09 | Clear | SKC | 28 | 18 | 55% | 29 | 76.38 | 0.0 | ||||||
| 29 | 06:47 | S 6 | 16.09 | Clear | SKC | 28 | 20 | 62% | 30 | 76.3 | 0.0 | ||||||
| 29 | 05:47 | SE 7 | 16.09 | Clear | SKC | 28 | 20 | 62% | 30 | 76.3 | 0.0 | ||||||
| 29 | 05:36 | SE 9 | 16.09 | Fair | CLR | 28 | 20 | 62% | 30 | 76.3 | 0.0 | ||||||
| 29 | 05:15 | S 9 | 16.09 | Fair | CLR | 28 | 20 | 62% | 30 | 76.3 | 0.0 | ||||||
| 29 | 04:55 | S 11 | 16.09 | Fair | CLR | 29 | 20 | 58% | 31 | 76.3 | 0.0 | ||||||
| 29 | 04:35 | S 9 | 16.09 | Fair | CLR | 29 | 20 | 58% | 31 | 76.28 | 0.0 | ||||||
| 29 | 04:15 | S 6 | 16.09 | Fair | CLR | 29 | 20 | 58% | 31 | 76.28 | 0.0 | ||||||
| 29 | 03:55 | S 7 | 16.09 | Fair | CLR | 30 | 20 | 55% | 32 | 76.25 | 0.0 | ||||||
| 29 | 03:35 | S 11 | 16.09 | Fair | CLR | 30 | 20 | 55% | 32 | 76.28 | 0.0 | ||||||
| 29 | 03:15 | SW 6 | 16.09 | Fair | CLR | 30 | 20 | 55% | 32 | 76.25 | 0.0 | ||||||
| 29 | 02:55 | S 7 | 16.09 | Fair | CLR | 30 | 20 | 55% | 32 | 76.25 | 0.0 | ||||||
| 29 | 02:35 | Vrbl 6 | 16.09 | Fair | CLR | 31 | 19 | 49% | 32 | 76.25 | 0.0 | ||||||
| 29 | 02:15 | SW 7 | 16.09 | Fair | CLR | 31 | 19 | 49% | 32 | 76.28 | 0.0 | ||||||
| 29 | 01:55 | S 11 | 16.09 | Fair | CLR | 31 | 19 | 49% | 32 | 76.28 | 0.0 | ||||||
| 29 | 01:35 | S 11 | 16.09 | Fair | CLR | 32 | 18 | 43% | 33 | 76.25 | 0.0 | ||||||
| 29 | 01:15 | S 9 | 16.09 | Fair | CLR | 32 | 18 | 43% | 33 | 76.28 | 0.0 | ||||||
| 29 | 00:55 | S 11 | 16.09 | Fair | CLR | 32 | 17 | 38.6 | 32.4 | 41% | 32 | 76.25 | 0.0 | ||||
| 29 | 00:35 | SE 20 | 16.09 | Fair | CLR | 33 | 17 | 38% | 33 | 76.25 | 0.0 | ||||||
| 29 | 00:15 | SE 20 | 16.09 | Fair | CLR | 33 | 18 | 41% | 34 | 76.25 | 0.0 | ||||||
| 28 | 23:55 | SE 17 | 16.09 | Fair | CLR | 33 | 17 | 38% | 33 | 76.25 | 0.0 | ||||||
| 28 | 23:35 | SE 13 | 16.09 | Fair | CLR | 34 | 17 | 36% | 35 | 76.23 | 0.0 | ||||||
| 28 | 23:15 | SE 15 | 16.09 | Fair | CLR | 34 | 16 | 34% | 34 | 76.23 | 0.0 | ||||||
| 28 | 22:55 | E 11 | 16.09 | Fair | CLR | 34 | 16 | 34% | 34 | 76.23 | 0.0 | ||||||
| 28 | 22:35 | E 13 | 16.09 | Fair | CLR | 34 | 16 | 34% | 34 | 76.23 | 0.0 | ||||||
| 28 | 22:15 | E 11 | 16.09 | Fair | CLR | 34 | 16 | 34% | 34 | 76.2 | 0.0 | ||||||
| 28 | 21:59 | E 13 | 16.09 | Clear | SKC | 34 | 15 | 32% | 34 | 76.23 | 0.0 | ||||||
| 28 | 21:56 | E 11 | 16.09 | Fair | CLR | 34 | 16 | 34% | 34 | 76.17 | 0.0 | ||||||
| 28 | 21:35 | E 11 | 16.09 | Fair | CLR | 35 | 16 | 32% | 35 | 76.17 | 0.0 | ||||||
| 28 | 20:47 | E 9 | 16.09 | Clear | SKC | 35 | 14 | 28% | 34 | 76.15 | 0.0 | ||||||
| 28 | 19:53 | E 11 | 16.09 | Clear | SKC | 36 | 13 | 25% | 35 | 76.12 | 0.0 | ||||||
| 28 | 19:47 | E 9 | 16.09 | Clear | SKC | 35 | 14 | 28% | 34 | 76.15 | 0.0 | ||||||
| 28 | 18:47 | SE 13 | 16.09 | A Few Clouds | FEW090 | 37 | 12 | 22% | 36 | 76.07 | 0.0 | ||||||
| 28 | 17:47 | E 7 | 16.09 | Clear | SKC | 38 | 14 | 24% | 38 | 76.1 | 0.0 | ||||||
| 28 | 16:47 | NW 7 | 16.09 | Clear | SKC | 38 | 14 | 24% | 38 | 76.12 | 0.0 | ||||||
| 28 | 15:50 | NE 7 | 16.09 | Clear | SKC | 39 | 16 | 26% | 40 | 76.2 | 0.0 | ||||||
| 28 | 14:48 | NE 13 | 16.09 | Clear | SKC | 39 | 17 | 27% | 40 | 76.28 | 0.0 | ||||||
| 28 | 13:53 | E 17 | 16.09 | Clear | SKC | 38 | 17 | 29% | 39 | 76.33 | 0.0 | ||||||
| 28 | 12:47 | SE 6 | 16.09 | Clear | SKC | 36 | 16 | 30% | 36 | 76.38 | 0.0 | ||||||
| 28 | 11:47 | E 13 | 16.09 | Clear | SKC | 35 | 18 | 36% | 36 | 76.4 | 0.0 | ||||||
| 28 | 10:47 | E 7 | 16.09 | Clear | SKC | 32 | 20 | 49% | 34 | 76.4 | 0.0 | ||||||
| 28 | 09:47 | NE 6 | 16.09 | Clear | SKC | 31 | 20 | 52% | 33 | 76.4 | 0.0 | ||||||
| 28 | 08:53 | NE 7 | 16.09 | Clear | SKC | 29 | 19 | 55% | 30 | 76.4 | 0.0 | ||||||
| 28 | 07:47 | E 7 | 16.09 | Clear | SKC | 27 | 18 | 58% | 28 | 76.35 | 0.0 | ||||||
| 28 | 06:47 | Calm | 16.09 | Clear | SKC | 27 | 18 | 58% | 28 | 76.33 | 0.0 | ||||||
| 28 | 05:47 | E 6 | 16.09 | Clear | SKC | 28 | 18 | 55% | 29 | 76.28 | 0.0 | ||||||
| 28 | 05:35 | E 7 | 16.09 | Fair | CLR | 28 | 20 | 62% | 30 | 76.25 | 0.0 | ||||||
| 28 | 05:15 | SE 7 | 16.09 | Fair | CLR | 28 | 20 | 62% | 30 | 76.25 | 0.0 | ||||||
| 28 | 04:55 | SE 9 | 16.09 | Fair | CLR | 28 | 20 | 62% | 30 | 76.25 | 0.0 | ||||||
| 28 | 04:35 | SE 7 | 16.09 | Fair | CLR | 28 | 20 | 62% | 30 | 76.25 | 0.0 | ||||||
| 28 | 04:17 | SE 6 | 16.09 | Fair | CLR | 28 | 20 | 62% | 30 | 76.25 | 0.0 | ||||||
| 28 | 03:55 | SE 9 | 16.09 | Fair | CLR | 29 | 20 | 58% | 31 | 76.23 | 0.0 | ||||||
| 28 | 03:35 | SE 11 | 16.09 | Fair | CLR | 29 | 20 | 58% | 31 | 76.23 | 0.0 | ||||||
| 28 | 03:15 | SE 11 | 16.09 | Fair | CLR | 29 | 20 | 58% | 31 | 76.23 | 0.0 | ||||||
| 28 | 02:55 | SE 15 | 16.09 | Fair | CLR | 29 | 20 | 58% | 31 | 76.23 | 0.0 | ||||||
| 28 | 02:35 | SE 11 | 16.09 | Fair | CLR | 29 | 20 | 58% | 31 | 76.25 | 0.0 | ||||||
| 28 | 02:15 | E 9 | 16.09 | Fair | CLR | 29 | 20 | 58% | 31 | 76.25 | 0.0 | ||||||
| Date | Time (cdt) | Wind (kph) | Vis. (km) | Weather | Sky Cond. | Air | Dwpt | Max. | Min. | Relative Humidity | Wind Chill (°C) | Heat Index (°C) | altimeter (cm) | sea level (mb) | 1 hr | 3 hr | 6 hr |
| 6 hour | |||||||||||||||||
| Temperature (ºC) | Pressure | Precipitation (cm) | |||||||||||||||